sensor_id;sensor_type;location;lat;lon;timestamp;pressure;altitude;pressure_sealevel;temperature;humidity
29385;BME280;16367;48.736;9.218;2023-02-04T00:00:24;-23394.66;;;7.15;100.00
29385;BME280;16367;48.736;9.218;2023-02-04T00:02:26;-23400.22;;;7.33;100.00
29385;BME280;16367;48.736;9.218;2023-02-04T00:04:29;-23396.72;;;7.22;100.00
29385;BME280;16367;48.736;9.218;2023-02-04T00:06:32;-23394.81;;;7.16;100.00
29385;BME280;16367;48.736;9.218;2023-02-04T00:08:35;-23396.41;;;7.21;100.00
29385;BME280;16367;48.736;9.218;2023-02-04T00:10:38;-23397.69;;;7.25;100.00
29385;BME280;16367;48.736;9.218;2023-02-04T00:12:40;-23393.56;;;7.12;100.00
29385;BME280;16367;48.736;9.218;2023-02-04T00:14:43;-23391.00;;;7.04;100.00
29385;BME280;16367;48.736;9.218;2023-02-04T00:16:47;-23392.59;;;7.09;100.00
29385;BME280;16367;48.736;9.218;2023-02-04T00:18:50;-23393.88;;;7.13;100.00
29385;BME280;16367;48.736;9.218;2023-02-04T00:20:52;-23398.16;;;7.26;100.00
29385;BME280;16367;48.736;9.218;2023-02-04T00:22:55;-23395.16;;;7.17;100.00
29385;BME280;16367;48.736;9.218;2023-02-04T00:24:58;-23393.88;;;7.13;100.00
29385;BME280;16367;48.736;9.218;2023-02-04T00:27:01;-23392.75;;;7.09;100.00
29385;BME280;16367;48.736;9.218;2023-02-04T00:29:04;-23391.66;;;7.06;100.00
29385;BME280;16367;48.736;9.218;2023-02-04T00:31:06;-23393.56;;;7.12;100.00
29385;BME280;16367;48.736;9.218;2023-02-04T00:33:10;-23392.59;;;7.09;100.00
29385;BME280;16367;48.736;9.218;2023-02-04T00:35:13;-23390.38;;;7.02;100.00
29385;BME280;16367;48.736;9.218;2023-02-04T00:37:16;-23392.28;;;7.08;100.00
29385;BME280;16367;48.736;9.218;2023-02-04T00:39:18;-23393.22;;;7.11;100.00
29385;BME280;16367;48.736;9.218;2023-02-04T00:41:21;-23395.31;;;7.17;100.00
29385;BME280;16367;48.736;9.218;2023-02-04T00:43:24;-23395.78;;;7.19;100.00
29385;BME280;16367;48.736;9.218;2023-02-04T00:45:26;-23398.66;;;7.28;100.00
29385;BME280;16367;48.736;9.218;2023-02-04T00:47:29;-23395.47;;;7.18;100.00
29385;BME280;16367;48.736;9.218;2023-02-04T00:49:33;-23398.00;;;7.26;100.00
29385;BME280;16367;48.736;9.218;2023-02-04T00:51:37;-23395.63;;;7.18;100.00
29385;BME280;16367;48.736;9.218;2023-02-04T00:53:40;-23394.81;;;7.16;100.00
29385;BME280;16367;48.736;9.218;2023-02-04T00:55:44;-23396.25;;;7.20;100.00
29385;BME280;16367;48.736;9.218;2023-02-04T00:57:46;-23395.94;;;7.19;100.00
29385;BME280;16367;48.736;9.218;2023-02-04T00:59:49;-23394.19;;;7.14;100.00
29385;BME280;16367;48.736;9.218;2023-02-04T01:01:52;-23393.22;;;7.11;100.00
29385;BME280;16367;48.736;9.218;2023-02-04T01:03:54;-23400.53;;;7.34;100.00
29385;BME280;16367;48.736;9.218;2023-02-04T01:05:58;-23396.09;;;7.20;100.00
29385;BME280;16367;48.736;9.218;2023-02-04T01:08:01;-23397.84;;;7.25;100.00
29385;BME280;16367;48.736;9.218;2023-02-04T01:10:04;-23391.97;;;7.07;100.00
29385;BME280;16367;48.736;9.218;2023-02-04T01:12:07;-23389.44;;;6.99;100.00
29385;BME280;16367;48.736;9.218;2023-02-04T01:14:10;-23392.13;;;7.07;100.00
29385;BME280;16367;48.736;9.218;2023-02-04T01:16:13;-23391.34;;;7.05;100.00
29385;BME280;16367;48.736;9.218;2023-02-04T01:18:16;-23383.69;;;6.81;100.00
29385;BME280;16367;48.736;9.218;2023-02-04T01:20:19;-23385.28;;;6.86;100.00
29385;BME280;16367;48.736;9.218;2023-02-04T01:22:23;-23384.81;;;6.84;100.00
29385;BME280;16367;48.736;9.218;2023-02-04T01:24:26;-23384.66;;;6.84;100.00
29385;BME280;16367;48.736;9.218;2023-02-04T01:26:28;-23384.66;;;6.84;100.00
29385;BME280;16367;48.736;9.218;2023-02-04T01:28:31;-23381.16;;;6.72;100.00
29385;BME280;16367;48.736;9.218;2023-02-04T01:30:34;-23383.69;;;6.81;100.00
29385;BME280;16367;48.736;9.218;2023-02-04T01:32:37;-23382.75;;;6.78;100.00
29385;BME280;16367;48.736;9.218;2023-02-04T01:34:39;-23383.38;;;6.80;100.00
29385;BME280;16367;48.736;9.218;2023-02-04T01:36:42;-23381.16;;;6.72;100.00
29385;BME280;16367;48.736;9.218;2023-02-04T01:38:46;-23385.59;;;6.87;100.00
29385;BME280;16367;48.736;9.218;2023-02-04T01:40:49;-23385.44;;;6.86;100.00
29385;BME280;16367;48.736;9.218;2023-02-04T01:42:51;-23388.78;;;6.97;100.00
29385;BME280;16367;48.736;9.218;2023-02-04T01:44:55;-23383.38;;;6.80;100.00
29385;BME280;16367;48.736;9.218;2023-02-04T01:46:58;-23384.34;;;6.83;100.00
29385;BME280;16367;48.736;9.218;2023-02-04T01:49:00;-23381.97;;;6.75;100.00
29385;BME280;16367;48.736;9.218;2023-02-04T01:51:05;-23382.75;;;6.78;100.00
29385;BME280;16367;48.736;9.218;2023-02-04T01:53:08;-23377.97;;;6.62;100.00
29385;BME280;16367;48.736;9.218;2023-02-04T01:55:15;-23372.72;;;6.46;100.00
29385;BME280;16367;48.736;9.218;2023-02-04T01:57:18;-23377.34;;;6.60;100.00
29385;BME280;16367;48.736;9.218;2023-02-04T01:59:21;-23373.22;;;6.47;100.00
29385;BME280;16367;48.736;9.218;2023-02-04T02:01:36;-23377.34;;;6.60;100.00
29385;BME280;16367;48.736;9.218;2023-02-04T02:03:42;-23376.22;;;6.57;100.00
29385;BME280;16367;48.736;9.218;2023-02-04T02:05:46;-23373.22;;;6.47;100.00
29385;BME280;16367;48.736;9.218;2023-02-04T02:07:52;-23375.28;;;6.54;100.00
29385;BME280;16367;48.736;9.218;2023-02-04T02:09:55;-23374.81;;;6.52;100.00
29385;BME280;16367;48.736;9.218;2023-02-04T02:12:00;-23372.09;;;6.44;100.00
29385;BME280;16367;48.736;9.218;2023-02-04T02:14:04;-23374.16;;;6.50;100.00
29385;BME280;16367;48.736;9.218;2023-02-04T02:16:07;-23371.63;;;6.42;100.00
29385;BME280;16367;48.736;9.218;2023-02-04T02:18:10;-23374.81;;;6.52;100.00
29385;BME280;16367;48.736;9.218;2023-02-04T02:20:15;-23370.34;;;6.38;100.00
29385;BME280;16367;48.736;9.218;2023-02-04T02:22:23;-23371.31;;;6.41;100.00
29385;BME280;16367;48.736;9.218;2023-02-04T02:24:30;-23373.84;;;6.49;100.00
29385;BME280;16367;48.736;9.218;2023-02-04T02:26:33;-23366.53;;;6.26;100.00
29385;BME280;16367;48.736;9.218;2023-02-04T02:28:36;-23369.06;;;6.34;100.00
29385;BME280;16367;48.736;9.218;2023-02-04T02:30:39;-23370.34;;;6.38;100.00
29385;BME280;16367;48.736;9.218;2023-02-04T02:32:43;-23364.00;;;6.18;100.00
29385;BME280;16367;48.736;9.218;2023-02-04T02:34:46;-23363.66;;;6.17;100.00
29385;BME280;16367;48.736;9.218;2023-02-04T02:36:49;-23364.00;;;6.18;100.00
29385;BME280;16367;48.736;9.218;2023-02-04T02:38:51;-23357.94;;;5.99;100.00
29385;BME280;16367;48.736;9.218;2023-02-04T02:40:57;-23366.22;;;6.25;100.00
29385;BME280;16367;48.736;9.218;2023-02-04T02:43:00;-23361.75;;;6.11;100.00
29385;BME280;16367;48.736;9.218;2023-02-04T02:45:07;-23361.44;;;6.10;100.00
29385;BME280;16367;48.736;9.218;2023-02-04T02:47:13;-23361.13;;;6.09;100.00
29385;BME280;16367;48.736;9.218;2023-02-04T02:49:18;-23359.69;;;6.05;100.00
29385;BME280;16367;48.736;9.218;2023-02-04T02:51:21;-23357.63;;;5.98;100.00
29385;BME280;16367;48.736;9.218;2023-02-04T02:53:23;-23353.19;;;5.84;100.00
29385;BME280;16367;48.736;9.218;2023-02-04T02:55:27;-23359.84;;;6.05;100.00
29385;BME280;16367;48.736;9.218;2023-02-04T02:57:31;-23356.66;;;5.95;100.00
29385;BME280;16367;48.736;9.218;2023-02-04T02:59:33;-23357.63;;;5.98;100.00
29385;BME280;16367;48.736;9.218;2023-02-04T03:01:36;-23357.16;;;5.96;100.00
29385;BME280;16367;48.736;9.218;2023-02-04T03:03:41;-23355.09;;;5.90;100.00
29385;BME280;16367;48.736;9.218;2023-02-04T03:05:47;-23357.63;;;5.98;100.00
29385;BME280;16367;48.736;9.218;2023-02-04T03:07:51;-23349.34;;;5.72;100.00
29385;BME280;16367;48.736;9.218;2023-02-04T03:09:54;-23350.47;;;5.75;100.00
29385;BME280;16367;48.736;9.218;2023-02-04T03:11:56;-23355.88;;;5.92;100.00
29385;BME280;16367;48.736;9.218;2023-02-04T03:14:01;-23351.72;;;5.79;100.00
29385;BME280;16367;48.736;9.218;2023-02-04T03:16:05;-23350.31;;;5.75;100.00
29385;BME280;16367;48.736;9.218;2023-02-04T03:18:10;-23351.41;;;5.78;100.00
29385;BME280;16367;48.736;9.218;2023-02-04T03:20:13;-23350.00;;;5.74;100.00
29385;BME280;16367;48.736;9.218;2023-02-04T03:22:16;-23350.63;;;5.76;100.00
29385;BME280;16367;48.736;9.218;2023-02-04T03:24:19;-23355.56;;;5.91;100.00
29385;BME280;16367;48.736;9.218;2023-02-04T03:26:23;-23355.25;;;5.90;100.00
29385;BME280;16367;48.736;9.218;2023-02-04T03:28:26;-23351.59;;;5.79;100.00
29385;BME280;16367;48.736;9.218;2023-02-04T03:30:30;-23353.34;;;5.84;100.00
29385;BME280;16367;48.736;9.218;2023-02-04T03:32:34;-23357.16;;;5.96;100.00
29385;BME280;16367;48.736;9.218;2023-02-04T03:34:36;-23356.34;;;5.94;100.00
29385;BME280;16367;48.736;9.218;2023-02-04T03:36:39;-23359.38;;;6.03;100.00
29385;BME280;16367;48.736;9.218;2023-02-04T03:38:42;-23357.16;;;5.96;100.00
29385;BME280;16367;48.736;9.218;2023-02-04T03:40:45;-23357.63;;;5.98;100.00
29385;BME280;16367;48.736;9.218;2023-02-04T03:42:47;-23357.00;;;5.96;100.00
29385;BME280;16367;48.736;9.218;2023-02-04T03:44:50;-23353.19;;;5.84;100.00
29385;BME280;16367;48.736;9.218;2023-02-04T03:46:54;-23354.75;;;5.89;100.00
29385;BME280;16367;48.736;9.218;2023-02-04T03:48:57;-23352.53;;;5.82;100.00
29385;BME280;16367;48.736;9.218;2023-02-04T03:51:00;-23351.59;;;5.79;100.00
29385;BME280;16367;48.736;9.218;2023-02-04T03:53:02;-23348.41;;;5.69;100.00
29385;BME280;16367;48.736;9.218;2023-02-04T03:55:05;-23350.94;;;5.77;100.00
29385;BME280;16367;48.736;9.218;2023-02-04T03:57:08;-23353.81;;;5.86;100.00
29385;BME280;16367;48.736;9.218;2023-02-04T03:59:11;-23353.50;;;5.85;100.00
29385;BME280;16367;48.736;9.218;2023-02-04T04:01:14;-23354.94;;;5.89;100.00
29385;BME280;16367;48.736;9.218;2023-02-04T04:03:18;-23356.34;;;5.94;100.00
29385;BME280;16367;48.736;9.218;2023-02-04T04:05:20;-23353.81;;;5.86;100.00
29385;BME280;16367;48.736;9.218;2023-02-04T04:07:23;-23349.34;;;5.72;100.00
29385;BME280;16367;48.736;9.218;2023-02-04T04:09:26;-23349.81;;;5.73;100.00
29385;BME280;16367;48.736;9.218;2023-02-04T04:11:28;-23350.31;;;5.75;100.00
29385;BME280;16367;48.736;9.218;2023-02-04T04:13:31;-23350.00;;;5.74;100.00
29385;BME280;16367;48.736;9.218;2023-02-04T04:15:33;-23346.81;;;5.64;100.00
29385;BME280;16367;48.736;9.218;2023-02-04T04:17:36;-23347.44;;;5.66;100.00
29385;BME280;16367;48.736;9.218;2023-02-04T04:19:40;-23347.44;;;5.66;100.00
29385;BME280;16367;48.736;9.218;2023-02-04T04:21:44;-23352.38;;;5.81;100.00
29385;BME280;16367;48.736;9.218;2023-02-04T04:23:47;-23351.59;;;5.79;100.00
29385;BME280;16367;48.736;9.218;2023-02-04T04:25:50;-23357.00;;;5.96;100.00
29385;BME280;16367;48.736;9.218;2023-02-04T04:27:52;-23350.94;;;5.77;100.00
29385;BME280;16367;48.736;9.218;2023-02-04T04:29:55;-23353.19;;;5.84;100.00
29385;BME280;16367;48.736;9.218;2023-02-04T04:31:58;-23351.91;;;5.80;100.00
29385;BME280;16367;48.736;9.218;2023-02-04T04:34:00;-23351.91;;;5.80;100.00
29385;BME280;16367;48.736;9.218;2023-02-04T04:36:06;-23355.41;;;5.91;100.00
29385;BME280;16367;48.736;9.218;2023-02-04T04:38:08;-23357.00;;;5.96;100.00
29385;BME280;16367;48.736;9.218;2023-02-04T04:40:11;-23354.75;;;5.89;100.00
29385;BME280;16367;48.736;9.218;2023-02-04T04:42:14;-23356.50;;;5.94;100.00
29385;BME280;16367;48.736;9.218;2023-02-04T04:44:17;-23353.81;;;5.86;100.00
29385;BME280;16367;48.736;9.218;2023-02-04T04:46:19;-23356.19;;;5.93;100.00
29385;BME280;16367;48.736;9.218;2023-02-04T04:48:22;-23355.88;;;5.92;100.00
29385;BME280;16367;48.736;9.218;2023-02-04T04:50:25;-23349.03;;;5.71;100.00
29385;BME280;16367;48.736;9.218;2023-02-04T04:52:29;-23351.91;;;5.80;100.00
29385;BME280;16367;48.736;9.218;2023-02-04T04:54:32;-23357.00;;;5.96;100.00
29385;BME280;16367;48.736;9.218;2023-02-04T04:56:35;-23350.47;;;5.75;100.00
29385;BME280;16367;48.736;9.218;2023-02-04T04:58:37;-23349.34;;;5.72;100.00
29385;BME280;16367;48.736;9.218;2023-02-04T05:00:40;-23352.53;;;5.82;100.00
29385;BME280;16367;48.736;9.218;2023-02-04T05:02:43;-23347.91;;;5.67;100.00
29385;BME280;16367;48.736;9.218;2023-02-04T05:04:46;-23350.16;;;5.74;100.00
29385;BME280;16367;48.736;9.218;2023-02-04T05:06:48;-23354.75;;;5.89;100.00
29385;BME280;16367;48.736;9.218;2023-02-04T05:08:53;-23350.00;;;5.74;100.00
29385;BME280;16367;48.736;9.218;2023-02-04T05:10:55;-23350.00;;;5.74;100.00
29385;BME280;16367;48.736;9.218;2023-02-04T05:12:58;-23345.06;;;5.58;100.00
29385;BME280;16367;48.736;9.218;2023-02-04T05:15:01;-23349.03;;;5.71;100.00
29385;BME280;16367;48.736;9.218;2023-02-04T05:17:03;-23354.75;;;5.89;100.00
29385;BME280;16367;48.736;9.218;2023-02-04T05:19:06;-23354.13;;;5.87;100.00
29385;BME280;16367;48.736;9.218;2023-02-04T05:21:09;-23354.59;;;5.88;100.00
29385;BME280;16367;48.736;9.218;2023-02-04T05:23:12;-23348.41;;;5.69;100.00
29385;BME280;16367;48.736;9.218;2023-02-04T05:25:16;-23353.81;;;5.86;100.00
29385;BME280;16367;48.736;9.218;2023-02-04T05:27:18;-23351.41;;;5.78;100.00
29385;BME280;16367;48.736;9.218;2023-02-04T05:29:21;-23351.25;;;5.78;100.00
29385;BME280;16367;48.736;9.218;2023-02-04T05:31:24;-23348.72;;;5.70;100.00
29385;BME280;16367;48.736;9.218;2023-02-04T05:33:26;-23342.66;;;5.51;100.00
29385;BME280;16367;48.736;9.218;2023-02-04T05:35:29;-23349.66;;;5.73;100.00
29385;BME280;16367;48.736;9.218;2023-02-04T05:37:32;-23342.50;;;5.50;100.00
29385;BME280;16367;48.736;9.218;2023-02-04T05:39:35;-23348.72;;;5.70;100.00
29385;BME280;16367;48.736;9.218;2023-02-04T05:41:39;-23345.84;;;5.61;100.00
29385;BME280;16367;48.736;9.218;2023-02-04T05:43:41;-23343.63;;;5.54;100.00
29385;BME280;16367;48.736;9.218;2023-02-04T05:45:44;-23344.25;;;5.56;100.00
29385;BME280;16367;48.736;9.218;2023-02-04T05:47:47;-23343.78;;;5.54;100.00
29385;BME280;16367;48.736;9.218;2023-02-04T05:49:49;-23346.16;;;5.62;100.00
29385;BME280;16367;48.736;9.218;2023-02-04T05:51:52;-23349.03;;;5.71;100.00
29385;BME280;16367;48.736;9.218;2023-02-04T05:53:55;-23346.50;;;5.63;100.00
29385;BME280;16367;48.736;9.218;2023-02-04T05:55:57;-23350.94;;;5.77;100.00
29385;BME280;16367;48.736;9.218;2023-02-04T05:58:01;-23347.59;;;5.66;100.00
29385;BME280;16367;48.736;9.218;2023-02-04T06:00:05;-23347.13;;;5.65;100.00
29385;BME280;16367;48.736;9.218;2023-02-04T06:02:08;-23342.19;;;5.49;100.00
29385;BME280;16367;48.736;9.218;2023-02-04T06:04:11;-23342.03;;;5.49;100.00
29385;BME280;16367;48.736;9.218;2023-02-04T06:06:15;-23338.06;;;5.36;100.00
29385;BME280;16367;48.736;9.218;2023-02-04T06:08:18;-23340.13;;;5.43;100.00
29385;BME280;16367;48.736;9.218;2023-02-04T06:10:21;-23338.06;;;5.36;100.00
29385;BME280;16367;48.736;9.218;2023-02-04T06:12:23;-23339.81;;;5.42;100.00
29385;BME280;16367;48.736;9.218;2023-02-04T06:14:27;-23339.50;;;5.41;100.00
29385;BME280;16367;48.736;9.218;2023-02-04T06:16:30;-23343.94;;;5.55;100.00
29385;BME280;16367;48.736;9.218;2023-02-04T06:18:32;-23345.84;;;5.61;100.00
29385;BME280;16367;48.736;9.218;2023-02-04T06:20:35;-23339.50;;;5.41;100.00
29385;BME280;16367;48.736;9.218;2023-02-04T06:22:38;-23337.91;;;5.36;100.00
29385;BME280;16367;48.736;9.218;2023-02-04T06:24:41;-23340.91;;;5.45;100.00
29385;BME280;16367;48.736;9.218;2023-02-04T06:26:43;-23338.53;;;5.38;100.00
29385;BME280;16367;48.736;9.218;2023-02-04T06:28:46;-23341.41;;;5.47;100.00
29385;BME280;16367;48.736;9.218;2023-02-04T06:30:50;-23339.16;;;5.40;100.00
29385;BME280;16367;48.736;9.218;2023-02-04T06:32:53;-23336.63;;;5.32;100.00
29385;BME280;16367;48.736;9.218;2023-02-04T06:34:55;-23335.97;;;5.29;100.00
29385;BME280;16367;48.736;9.218;2023-02-04T06:36:58;-23337.25;;;5.34;100.00
29385;BME280;16367;48.736;9.218;2023-02-04T06:39:00;-23336.94;;;5.33;100.00
29385;BME280;16367;48.736;9.218;2023-02-04T06:41:03;-23338.06;;;5.36;100.00
29385;BME280;16367;48.736;9.218;2023-02-04T06:43:06;-23337.56;;;5.35;100.00
29385;BME280;16367;48.736;9.218;2023-02-04T06:45:09;-23339.81;;;5.42;100.00
29385;BME280;16367;48.736;9.218;2023-02-04T06:47:13;-23339.16;;;5.40;100.00
29385;BME280;16367;48.736;9.218;2023-02-04T06:49:16;-23339.97;;;5.42;100.00
29385;BME280;16367;48.736;9.218;2023-02-04T06:51:18;-23341.41;;;5.47;100.00
29385;BME280;16367;48.736;9.218;2023-02-04T06:53:21;-23344.41;;;5.56;100.00
29385;BME280;16367;48.736;9.218;2023-02-04T06:55:24;-23339.16;;;5.40;100.00
29385;BME280;16367;48.736;9.218;2023-02-04T06:57:27;-23337.91;;;5.36;100.00
29385;BME280;16367;48.736;9.218;2023-02-04T06:59:29;-23339.50;;;5.41;100.00
29385;BME280;16367;48.736;9.218;2023-02-04T07:01:33;-23337.25;;;5.34;100.00
29385;BME280;16367;48.736;9.218;2023-02-04T07:03:37;-23342.03;;;5.49;100.00
29385;BME280;16367;48.736;9.218;2023-02-04T07:05:40;-23336.47;;;5.31;100.00
29385;BME280;16367;48.736;9.218;2023-02-04T07:07:42;-23333.91;;;5.23;100.00
29385;BME280;16367;48.736;9.218;2023-02-04T07:09:45;-23334.88;;;5.26;100.00
29385;BME280;16367;48.736;9.218;2023-02-04T07:11:48;-23338.84;;;5.39;100.00
29385;BME280;16367;48.736;9.218;2023-02-04T07:13:50;-23343.31;;;5.53;100.00
29385;BME280;16367;48.736;9.218;2023-02-04T07:15:53;-23336.94;;;5.33;100.00
29385;BME280;16367;48.736;9.218;2023-02-04T07:17:56;-23335.81;;;5.29;100.00
29385;BME280;16367;48.736;9.218;2023-02-04T07:20:00;-23336.63;;;5.32;100.00
29385;BME280;16367;48.736;9.218;2023-02-04T07:22:03;-23339.66;;;5.41;100.00
29385;BME280;16367;48.736;9.218;2023-02-04T07:24:06;-23340.91;;;5.45;100.00
29385;BME280;16367;48.736;9.218;2023-02-04T07:26:08;-23340.75;;;5.45;100.00
29385;BME280;16367;48.736;9.218;2023-02-04T07:28:11;-23339.31;;;5.40;100.00
29385;BME280;16367;48.736;9.218;2023-02-04T07:30:14;-23341.72;;;5.48;100.00
29385;BME280;16367;48.736;9.218;2023-02-04T07:32:16;-23344.91;;;5.58;100.00
29385;BME280;16367;48.736;9.218;2023-02-04T07:34:19;-23335.50;;;5.28;100.00
29385;BME280;16367;48.736;9.218;2023-02-04T07:36:23;-23335.19;;;5.27;100.00
29385;BME280;16367;48.736;9.218;2023-02-04T07:38:26;-23344.59;;;5.57;100.00
29385;BME280;16367;48.736;9.218;2023-02-04T07:40:29;-23338.84;;;5.39;100.00
29385;BME280;16367;48.736;9.218;2023-02-04T07:42:32;-23341.72;;;5.48;100.00
29385;BME280;16367;48.736;9.218;2023-02-04T07:44:35;-23335.34;;;5.27;100.00
29385;BME280;16367;48.736;9.218;2023-02-04T07:46:38;-23335.34;;;5.27;100.00
29385;BME280;16367;48.736;9.218;2023-02-04T07:48:41;-23336.47;;;5.31;100.00
29385;BME280;16367;48.736;9.218;2023-02-04T07:50:44;-23339.16;;;5.40;100.00
29385;BME280;16367;48.736;9.218;2023-02-04T07:52:48;-23339.16;;;5.40;100.00
29385;BME280;16367;48.736;9.218;2023-02-04T07:54:51;-23341.06;;;5.46;100.00
29385;BME280;16367;48.736;9.218;2023-02-04T07:56:53;-23339.50;;;5.41;100.00
29385;BME280;16367;48.736;9.218;2023-02-04T07:58:56;-23339.81;;;5.42;100.00
29385;BME280;16367;48.736;9.218;2023-02-04T08:00:59;-23339.31;;;5.40;100.00
29385;BME280;16367;48.736;9.218;2023-02-04T08:03:02;-23338.53;;;5.38;100.00
29385;BME280;16367;48.736;9.218;2023-02-04T08:05:06;-23335.66;;;5.28;100.00
29385;BME280;16367;48.736;9.218;2023-02-04T08:07:09;-23339.16;;;5.40;100.00
29385;BME280;16367;48.736;9.218;2023-02-04T08:09:13;-23335.97;;;5.29;100.00
29385;BME280;16367;48.736;9.218;2023-02-04T08:11:15;-23332.47;;;5.18;100.00
29385;BME280;16367;48.736;9.218;2023-02-04T08:13:18;-23337.91;;;5.36;100.00
29385;BME280;16367;48.736;9.218;2023-02-04T08:15:21;-23340.91;;;5.45;100.00
29385;BME280;16367;48.736;9.218;2023-02-04T08:17:23;-23338.22;;;5.37;100.00
29385;BME280;16367;48.736;9.218;2023-02-04T08:19:26;-23341.56;;;5.47;100.00
29385;BME280;16367;48.736;9.218;2023-02-04T08:21:29;-23342.03;;;5.49;100.00
29385;BME280;16367;48.736;9.218;2023-02-04T08:23:31;-23337.56;;;5.35;100.00
29385;BME280;16367;48.736;9.218;2023-02-04T08:25:35;-23340.28;;;5.43;100.00
29385;BME280;16367;48.736;9.218;2023-02-04T08:27:38;-23346.50;;;5.63;100.00
29385;BME280;16367;48.736;9.218;2023-02-04T08:29:41;-23340.75;;;5.45;100.00
29385;BME280;16367;48.736;9.218;2023-02-04T08:31:44;-23345.22;;;5.59;100.00
29385;BME280;16367;48.736;9.218;2023-02-04T08:33:48;-23346.50;;;5.63;100.00
29385;BME280;16367;48.736;9.218;2023-02-04T08:35:50;-23344.59;;;5.57;100.00
29385;BME280;16367;48.736;9.218;2023-02-04T08:37:53;-23345.53;;;5.60;100.00
29385;BME280;16367;48.736;9.218;2023-02-04T08:39:56;-23347.91;;;5.67;100.00
29385;BME280;16367;48.736;9.218;2023-02-04T08:42:00;-23348.41;;;5.69;100.00
29385;BME280;16367;48.736;9.218;2023-02-04T08:44:03;-23354.94;;;5.89;100.00
29385;BME280;16367;48.736;9.218;2023-02-04T08:46:05;-23354.75;;;5.89;100.00
29385;BME280;16367;48.736;9.218;2023-02-04T08:48:08;-23346.66;;;5.63;100.00
29385;BME280;16367;48.736;9.218;2023-02-04T08:50:11;-23346.66;;;5.63;100.00
29385;BME280;16367;48.736;9.218;2023-02-04T08:52:14;-23352.22;;;5.81;100.00
29385;BME280;16367;48.736;9.218;2023-02-04T08:54:16;-23354.44;;;5.88;100.00
29385;BME280;16367;48.736;9.218;2023-02-04T08:56:19;-23354.13;;;5.87;100.00
29385;BME280;16367;48.736;9.218;2023-02-04T08:58:23;-23349.03;;;5.71;100.00
29385;BME280;16367;48.736;9.218;2023-02-04T09:00:26;-23350.31;;;5.75;100.00
29385;BME280;16367;48.736;9.218;2023-02-04T09:02:29;-23353.97;;;5.86;100.00
29385;BME280;16367;48.736;9.218;2023-02-04T09:04:32;-23374.81;;;6.52;100.00
29385;BME280;16367;48.736;9.218;2023-02-04T09:06:34;-23391.16;;;7.04;100.00
29385;BME280;16367;48.736;9.218;2023-02-04T09:08:37;-23393.72;;;7.12;99.32
29385;BME280;16367;48.736;9.218;2023-02-04T09:10:40;-23397.38;;;7.24;100.00
29385;BME280;16367;48.736;9.218;2023-02-04T09:12:42;-23410.41;;;7.65;98.60
29385;BME280;16367;48.736;9.218;2023-02-04T09:14:46;-23399.91;;;7.32;95.76
29385;BME280;16367;48.736;9.218;2023-02-04T09:16:49;-23393.09;;;7.10;95.38
29385;BME280;16367;48.736;9.218;2023-02-04T09:18:52;-23395.31;;;7.17;97.29
29385;BME280;16367;48.736;9.218;2023-02-04T09:20:55;-23384.97;;;6.85;97.97
29385;BME280;16367;48.736;9.218;2023-02-04T09:22:57;-23392.59;;;7.09;95.67
29385;BME280;16367;48.736;9.218;2023-02-04T09:25:00;-23433.28;;;8.38;89.68
29385;BME280;16367;48.736;9.218;2023-02-04T09:27:03;-23418.03;;;7.89;89.85
29385;BME280;16367;48.736;9.218;2023-02-04T09:29:05;-23433.09;;;8.37;87.22
29385;BME280;16367;48.736;9.218;2023-02-04T09:31:09;-23444.38;;;8.73;84.68
29385;BME280;16367;48.736;9.218;2023-02-04T09:33:13;-23422.47;;;8.03;85.10
29385;BME280;16367;48.736;9.218;2023-02-04T09:35:16;-23467.22;;;9.45;81.19
29385;BME280;16367;48.736;9.218;2023-02-04T09:37:19;-23435.66;;;8.45;83.58
29385;BME280;16367;48.736;9.218;2023-02-04T09:39:22;-23451.34;;;8.95;84.20
29385;BME280;16367;48.736;9.218;2023-02-04T09:41:24;-23477.69;;;9.78;83.05
29385;BME280;16367;48.736;9.218;2023-02-04T09:43:31;-23480.53;;;9.88;79.03
29385;BME280;16367;48.736;9.218;2023-02-04T09:45:35;-23510.31;;;10.82;75.94
29385;BME280;16367;48.736;9.218;2023-02-04T09:47:39;-23475.63;;;9.72;74.36
29385;BME280;16367;48.736;9.218;2023-02-04T09:49:43;-23472.91;;;9.63;74.16
29385;BME280;16367;48.736;9.218;2023-02-04T09:51:47;-23419.28;;;7.93;78.61
29385;BME280;16367;48.736;9.218;2023-02-04T09:53:52;-23482.13;;;9.93;77.84
29385;BME280;16367;48.736;9.218;2023-02-04T09:55:56;-23420.88;;;7.98;82.48
29385;BME280;16367;48.736;9.218;2023-02-04T09:57:58;-23410.06;;;7.64;83.12
29385;BME280;16367;48.736;9.218;2023-02-04T10:00:04;-23455.47;;;9.08;79.33
29385;BME280;16367;48.736;9.218;2023-02-04T10:02:21;-23456.28;;;9.11;76.29
29385;BME280;16367;48.736;9.218;2023-02-04T10:04:25;-23428.03;;;8.21;74.20
29385;BME280;16367;48.736;9.218;2023-02-04T10:06:29;-23449.44;;;8.89;70.75
29385;BME280;16367;48.736;9.218;2023-02-04T10:08:32;-23431.03;;;8.31;73.63
29385;BME280;16367;48.736;9.218;2023-02-04T10:10:35;-23419.28;;;7.93;77.17
29385;BME280;16367;48.736;9.218;2023-02-04T10:12:38;-23453.56;;;9.02;71.95
29385;BME280;16367;48.736;9.218;2023-02-04T10:14:41;-23432.47;;;8.35;73.11
29385;BME280;16367;48.736;9.218;2023-02-04T10:16:49;-23436.13;;;8.47;73.60
29385;BME280;16367;48.736;9.218;2023-02-04T10:18:54;-23454.69;;;9.06;75.11
29385;BME280;16367;48.736;9.218;2023-02-04T10:21:10;-23426.59;;;8.16;76.08
29385;BME280;16367;48.736;9.218;2023-02-04T10:23:13;-23423.72;;;8.07;74.67
29385;BME280;16367;48.736;9.218;2023-02-04T10:25:18;-23416.44;;;7.84;77.44
29385;BME280;16367;48.736;9.218;2023-02-04T10:27:21;-23403.72;;;7.44;80.20
29385;BME280;16367;48.736;9.218;2023-02-04T10:29:24;-23406.28;;;7.52;81.09
29385;BME280;16367;48.736;9.218;2023-02-04T10:31:33;-23380.38;;;6.70;80.78
29385;BME280;16367;48.736;9.218;2023-02-04T10:33:38;-23403.88;;;7.44;80.09
29385;BME280;16367;48.736;9.218;2023-02-04T10:35:45;-23397.69;;;7.25;78.90
29385;BME280;16367;48.736;9.218;2023-02-04T10:38:02;-23401.34;;;7.36;80.32
29385;BME280;16367;48.736;9.218;2023-02-04T10:40:25;-23396.72;;;7.22;80.19
29385;BME280;16367;48.736;9.218;2023-02-04T10:42:29;-23390.06;;;7.01;79.37
29385;BME280;16367;48.736;9.218;2023-02-04T10:44:33;-23385.59;;;6.87;82.18
29385;BME280;16367;48.736;9.218;2023-02-04T10:46:37;-23395.00;;;7.16;82.35